Terminal Aerodrome Forecast
Issued by NWS

Home | Current Version | Previous Version | Text Only | Print | Product List | Glossary On
Versions: 1 2 3 4 5 6 7 8 9 10 11 12 13 14 15 16 17 18 19 20 21 22 23 24 25 26 27
000
FTUS43 KABR 032000 AAB
TAFATY
TAF AMD
KATY 032012Z 0320/0418 32025G35KT 3SM BLSN OVC015
     FM032200 32022G30KT 3SM BLSN OVC060
     FM040000 32015G25KT 5SM BLSN BKN040
     FM040200 31012KT P6SM SKC
     FM040800 29007KT P6SM SKC
     FM041700 32015G22KT P6SM BKN050=

USA.gov is the U.S. government's official web portal to all federal, state and local government web resources and services.